• Join FlightAware (Why Join?)
  • Login
  • US Flag 
08:51AM EST


 

Airport Tracker/Info


-or-


 

Live Flight TrackerFlight Track Log ✈ XOJ549 ✈ 26-Jun-2013 ✈ KGSO - KFOK

Flight Track Log - Related Links

Times and Time Zones

All times are in EDT time to prevent confusion due to time zone crossing. See the XOJ549 flight status page for this flight to view local times or setup timezone preferences in your user account.

Time Position Orientation Groundspeed Altitude Reporting Facility
EDT Latitude Longitude Course Direction KTS MPH feet Rate Location/Type
09:38AM 36.0514 -79.9006 55° Northeast 258 297 6,000  Level Washington Center
09:39AM 36.0997 -79.8286 50° Northeast 273 314 9,500 3,559 Climbing Washington Center
09:40AM 36.1508 -79.7414 54° Northeast 294 338 13,000 3,429 Climbing Washington Center
09:41AM 36.2147 -79.6442 51° Northeast 324 373 16,300 2,950 Climbing Washington Center
09:42AM 36.2700 -79.5544 53° Northeast 344 396 18,900 2,521 Climbing Washington Center
09:43AM 36.3799 -79.3635 50° Northeast  Level FlightAware Approximate
09:43AM 36.3250 -79.4642 53° Northeast 363 418 21,300  Level Washington Center
09:44AM 36.4459 -79.2508 55° Northeast  Level FlightAware Approximate
09:44AM 36.3997 -79.3492 51° Northeast 370 426 23,800  Level Washington Center
09:45AM 36.4617 -79.2361 56° Northeast 383 441 25,400 1,636 Climbing Washington Center
09:46AM 36.5319 -79.1178 54° Northeast 401 461 27,100 1,729 Climbing Washington Center
09:47AM 36.6044 -78.9944 54° Northeast 424 488 28,800 1,714 Climbing Washington Center
09:48AM 36.6794 -78.8475 57° Northeast 435 501 30,500 1,484 Climbing Washington Center
09:50AM 36.8175 -78.5936 56° Northeast 457 526 33,300 1,133 Climbing Washington Center
09:51AM 36.8981 -78.4514 55° Northeast 457 526 33,900 350 Climbing Washington Center
09:52AM 36.9636 -78.3239 57° Northeast 465 535 34,000 50 Climbing Washington Center
09:53AM 37.0400 -78.1731 58° Northeast 471 542 34,000  Level Washington Center
09:54AM 37.0869 -78.0236 68° East 464 534 34,000 605 Level Washington Center
09:55AM 37.1336 -77.8739 69° East 459 528 35,200 1,279 Climbing Washington Center
09:56AM 37.2069 -77.7536 53° Northeast 465 535 36,600 1,587 Climbing Washington Center
09:57AM 37.3006 -77.6414 44° Northeast 460 529 38,400 1,678 Climbing Washington Center
09:58AM 37.3900 -77.5314 44° Northeast 455 524 39,900 1,322 Climbing Washington Center
09:59AM 37.4814 -77.4239 43° Northeast 449 517 41,000 545 Climbing Washington Center
10:00AM 37.5792 -77.3003 45° Northeast 443 510 41,000  Level Washington Center
10:01AM 37.6725 -77.1817 45° Northeast 449 517 41,000  Level Washington Center
10:02AM 37.7617 -77.0681 45° Northeast 455 524 41,000  Level Washington Center
10:03AM 37.8547 -76.9542 44° Northeast 455 524 41,000  Level Washington Center
10:04AM 37.9456 -76.8372 45° Northeast 455 524 41,000 -545 Level Washington Center
10:05AM 38.0344 -76.7228 45° Northeast 455 524 39,900 -1,160 Descending Washington Center
10:06AM 38.1272 -76.6053 45° Northeast 455 524 38,700 -1,261 Descending Washington Center
10:07AM 38.2178 -76.4903 45° Northeast 455 524 37,400 -1,279 Descending Washington Center
10:08AM 38.3125 -76.3750 44° Northeast 461 531 36,100 -1,220 Descending Washington Center
10:09AM 38.4194 -76.2808 35° Northeast 456 525 35,000 -559 Descending Washington Center
10:10AM 38.5219 -76.1808 37° Northeast 463 533 35,000 -341 Level Washington Center
10:11AM 38.6308 -76.0806 36° Northeast 479 551 34,300 -2,016 Descending Washington Center
10:12AM 38.7397 -75.9750 37° Northeast 479 551 30,900 -2,695 Descending Washington Center
10:13AM 38.8192 -75.8394 53° Northeast 467 537 29,000 -950 Descending Washington Center
10:14AM 38.8633 -75.6850 70° East 462 532 29,000  Level Washington Center
10:15AM 38.9028 -75.5303 72° East 451 519 29,000  Level Washington Center
10:16AM 38.9422 -75.3781 72° East 451 519 29,000  Level Washington Center
10:17AM 38.9836 -75.2206 71° East 451 519 29,000  Level Washington Center
10:18AM 39.0225 -75.0681 72° East 446 513 29,000  Level Washington Center
10:19AM 39.0614 -74.9125 72° East 446 513 29,000  Level Washington Center
10:20AM 39.1128 -74.7836 63° Northeast 446 513 29,000  Level Washington Center
10:21AM 39.1992 -74.6461 51° Northeast 447 514 29,000  Level Washington Center
10:22AM 39.2733 -74.5353 49° Northeast 447 514 29,000 -857 Level Washington Center
10:23AM 39.3658 -74.4022 48° Northeast 453 521 27,300 -2,455 Descending Washington Center
10:25AM 39.4797 -74.2108 52° Northeast 455 524 22,700 -2,532 Descending New York Center
10:26AM 39.5628 -74.0803 50° Northeast 435 501 20,800 -1,574 Descending New York Center
10:27AM 39.6369 -73.9653 50° Northeast 411 473 19,500 -1,261 Descending New York Center
10:28AM 39.7019 -73.8656 50° Northeast 405 466 18,300 -1,250 Descending New York Center
10:29AM 39.7694 -73.7553 51° Northeast 400 460 17,000 -1,289 Descending New York Center
10:30AM 39.8389 -73.6472 50° Northeast 389 448 15,700 -1,291 Descending New York Center
10:31AM 39.9722 -73.4742 45° Northeast 403 464 13,600 -1,057 Descending Boston Center
10:32AM 40.0500 -73.3806 43° Northeast 388 447 12,900 -318 Descending Boston Center
10:34AM 40.1278 -73.2867 43° Northeast 377 434 12,900 -682 Level Boston Center
10:35AM 40.2183 -73.1792 42° Northeast 371 427 11,400 -1,500 Descending Boston Center
10:36AM 40.2894 -73.0958 42° Northeast 360 414 9,900 -1,250 Descending Boston Center
10:37AM 40.3547 -73.0172 43° Northeast 338 389 8,900 -446 Descending Boston Center
10:39AM 40.4833 -72.8667 42° Northeast 311 358 8,600 -99 Descending New York TRACON
10:40AM 40.5500 -72.7833 44° Northeast 307 353 8,600  Level New York TRACON
10:41AM 40.6000 -72.7000 52° Northeast 308 354 8,600 -350 Level New York TRACON
10:42AM 40.6667 -72.6333 37° Northeast 271 312 7,900 -1,350 Descending New York TRACON
10:43AM 40.7333 -72.6000 21° North 262 302 5,900 -1,500 Descending New York TRACON
10:44AM 40.8000 -72.5833 11° North 219 252 4,900 -1,650 Descending New York TRACON
10:45AM 40.8333 -72.5500 37° Northeast 184 212 2,600 -1,850 Descending New York TRACON
10:46AM 40.8667 -72.5833 323° Northwest 149 171 1,200 -1,400 Descending New York TRACON
10:48AM 40.8333 -72.6167 246° West  Level FlightAware Approximate
10:55AM 40.8437 -72.6318 246° West  Level Estimated
10:56AM 40.8437 -72.6318 246° West  Level Estimated